Time;durP1;ratioP1;P1;durP2;ratioP2;P2;SDS_P1;SDS_P2;PMS_P1;PMS_P2;Temp;Humidity;BMP_temperature;BMP_pressure;BME280_temperature;BME280_humidity;BME280_pressure;Samples;Min_cycle;Max_cycle;Signal;HPM_P1;HPM_P2
2022/01/14 00:00:14;;;;;;;24.42;19.42;;;0.90;99.90;;;;;;5028976;28;20215;-76
2022/01/14 00:02:41;;;;;;;22.15;19.40;;;0.90;99.90;;;;;;5013518;28;20264;-76
2022/01/14 00:05:09;;;;;;;25.35;20.25;;;0.80;99.90;;;;;;5023198;28;20873;-75
2022/01/14 00:07:36;;;;;;;24.02;20.58;;;0.70;99.90;;;;;;5030716;28;20229;-74
2022/01/14 00:10:03;;;;;;;22.67;19.67;;;0.60;99.90;;;;;;5021778;28;20309;-74
2022/01/14 00:12:36;;;;;;;27.70;22.42;;;0.50;99.90;;;;;;5018111;28;20201;-74
2022/01/14 00:15:23;;;;;;;25.45;21.17;;;0.40;99.90;;;;;;5030993;28;20281;-74
2022/01/14 00:17:53;;;;;;;27.20;22.40;;;0.40;99.90;;;;;;5018203;28;20195;-75
2022/01/14 00:20:20;;;;;;;29.42;23.17;;;0.40;99.90;;;;;;5022018;28;20280;-74
2022/01/14 00:22:47;;;;;;;28.23;22.38;;;0.40;99.90;;;;;;5024444;28;20201;-73
2022/01/14 00:33:29;;;;;;;30.15;24.55;;;0.40;99.90;;;;;;5026795;28;20292;-74
2022/01/14 00:35:56;;;;;;;30.50;25.20;;;0.40;99.90;;;;;;5017876;28;20206;-74
2022/01/14 00:38:23;;;;;;;30.23;23.73;;;0.50;99.90;;;;;;5022950;28;20792;-74
2022/01/14 00:40:50;;;;;;;29.98;24.33;;;0.40;99.90;;;;;;5023893;28;20584;-75
2022/01/14 00:43:17;;;;;;;33.88;25.17;;;0.40;99.90;;;;;;5022129;28;20194;-74
2022/01/14 00:45:45;;;;;;;31.20;25.40;;;0.40;99.90;;;;;;5028230;28;21561;-74
2022/01/14 00:48:12;;;;;;;28.95;24.73;;;0.40;99.90;;;;;;5030139;28;20202;-75
2022/01/14 00:50:44;;;;;;;30.75;24.52;;;0.40;99.90;;;;;;5014494;28;20727;-75
2022/01/14 00:53:11;;;;;;;31.80;25.13;;;0.40;99.90;;;;;;5023093;28;20209;-75
2022/01/14 00:55:48;;;;;;;31.92;25.20;;;0.40;99.90;;;;;;5029585;28;20282;-75
2022/01/14 01:00:59;;;;;;;32.42;24.48;;;0.30;99.90;;;;;;5019247;28;20682;-75
2022/01/14 01:03:28;;;;;;;30.00;23.55;;;0.30;99.90;;;;;;5030661;28;20243;-74
2022/01/14 01:05:56;;;;;;;35.78;27.50;;;0.30;99.90;;;;;;5027913;28;20194;-75
2022/01/14 01:08:26;;;;;;;33.35;26.33;;;0.30;99.90;;;;;;5029172;28;20291;-74
2022/01/14 01:10:53;;;;;;;34.50;26.52;;;0.30;99.90;;;;;;5027361;28;20297;-75
2022/01/14 01:13:24;;;;;;;34.90;27.05;;;0.30;99.90;;;;;;5029773;28;20727;-75
2022/01/14 01:15:51;;;;;;;35.05;28.02;;;0.30;99.90;;;;;;5028121;28;20260;-74
2022/01/14 01:18:19;;;;;;;32.00;26.38;;;0.30;99.90;;;;;;5031109;28;20226;-75
2022/01/14 01:20:47;;;;;;;35.40;27.70;;;0.30;99.90;;;;;;5026360;28;20252;-74
2022/01/14 01:23:15;;;;;;;33.50;27.60;;;0.30;99.90;;;;;;5024517;28;20580;-74
2022/01/14 01:25:46;;;;;;;32.10;26.95;;;0.30;99.90;;;;;;5020455;28;20289;-75
2022/01/14 01:28:14;;;;;;;37.78;28.23;;;0.20;99.90;;;;;;5018094;28;20202;-75
2022/01/14 01:31:05;;;;;;;33.20;27.02;;;0.20;99.90;;;;;;5023623;28;20716;-75
2022/01/14 01:33:33;;;;;;;34.50;29.13;;;0.20;99.90;;;;;;5012787;28;20187;-75
2022/01/14 01:36:00;;;;;;;33.08;27.58;;;0.20;99.90;;;;;;5020892;28;20257;-75
2022/01/14 01:38:29;;;;;;;31.40;26.50;;;0.20;99.90;;;;;;5024705;28;20280;-75
2022/01/14 01:40:56;;;;;;;33.20;26.83;;;0.20;99.90;;;;;;5029142;28;20221;-75
2022/01/14 01:43:25;;;;;;;33.25;26.95;;;0.10;99.90;;;;;;5029049;28;20213;-75
2022/01/14 01:45:54;;;;;;;36.47;26.80;;;0.10;99.90;;;;;;5026095;28;20208;-74
2022/01/14 01:48:22;;;;;;;37.25;28.38;;;0.10;99.90;;;;;;5022465;28;20298;-74
2022/01/14 01:50:49;;;;;;;29.08;24.70;;;0.10;99.90;;;;;;5027866;28;20228;-76
2022/01/14 01:53:16;;;;;;;32.35;26.52;;;0.10;99.90;;;;;;5019233;28;20261;-75
2022/01/14 01:55:45;;;;;;;29.20;24.20;;;0.10;99.90;;;;;;5031105;28;20193;-74
2022/01/14 01:58:12;;;;;;;32.75;27.45;;;0.10;99.90;;;;;;5026999;28;20553;-75
2022/01/14 02:00:39;;;;;;;33.95;25.90;;;0.10;99.90;;;;;;5025433;28;20228;-74
2022/01/14 02:03:08;;;;;;;32.38;25.00;;;0.20;99.90;;;;;;5016258;28;20205;-75
2022/01/14 02:05:35;;;;;;;31.75;25.92;;;0.10;99.90;;;;;;5029323;28;20198;-74
2022/01/14 02:08:02;;;;;;;32.15;26.20;;;0.10;99.90;;;;;;5019871;28;20318;-74
2022/01/14 02:10:29;;;;;;;32.17;26.65;;;0.10;99.90;;;;;;5027964;28;20228;-74
2022/01/14 02:12:57;;;;;;;28.98;25.25;;;0.10;99.90;;;;;;5029603;28;20604;-74
2022/01/14 02:15:46;;;;;;;31.55;24.42;;;0.10;99.90;;;;;;5023121;28;20281;-74
2022/01/14 02:18:36;;;;;;;31.38;23.50;;;0.10;99.90;;;;;;5024038;28;20190;-75
2022/01/14 02:23:54;;;;;;;29.38;24.27;;;0.00;99.90;;;;;;5015768;28;20286;-74
2022/01/14 02:26:23;;;;;;;27.90;22.95;;;0.00;99.90;;;;;;5034868;28;20309;-74
2022/01/14 02:28:51;;;;;;;26.75;22.73;;;-0.10;99.90;;;;;;5025979;28;20194;-75
2022/01/14 02:31:18;;;;;;;26.02;21.70;;;-0.10;99.90;;;;;;5015414;28;20194;-75
2022/01/14 02:33:46;;;;;;;31.58;22.60;;;-0.20;99.90;;;;;;5029548;28;20641;-75
2022/01/14 02:36:15;;;;;;;29.80;22.88;;;-0.20;99.90;;;;;;5028161;28;20194;-74
2022/01/14 02:38:42;;;;;;;28.35;21.95;;;-0.30;99.90;;;;;;5027354;28;20207;-75
2022/01/14 02:41:09;;;;;;;27.52;22.10;;;-0.30;99.90;;;;;;5028611;28;20221;-74
2022/01/14 02:43:36;;;;;;;28.55;23.33;;;-0.30;99.90;;;;;;5034261;28;20225;-74
2022/01/14 02:46:05;;;;;;;27.52;23.08;;;-0.40;99.90;;;;;;5028235;28;20288;-74
2022/01/14 02:48:32;;;;;;;27.75;22.77;;;-0.50;99.90;;;;;;5026241;28;20222;-74
2022/01/14 02:51:02;;;;;;;35.40;24.58;;;-0.50;99.90;;;;;;5027602;28;20219;-74
2022/01/14 02:53:55;;;;;;;31.05;23.73;;;-0.50;99.90;;;;;;5025557;28;20930;-74
2022/01/14 02:56:30;;;;;;;31.65;23.67;;;-0.60;99.90;;;;;;5026208;28;20197;-75
2022/01/14 02:58:58;;;;;;;31.60;24.92;;;-0.60;99.90;;;;;;5027137;28;20194;-74
2022/01/14 03:01:25;;;;;;;32.30;25.15;;;-0.60;99.90;;;;;;5031067;28;20197;-74
2022/01/14 03:03:55;;;;;;;31.65;25.98;;;-0.70;99.90;;;;;;5020274;28;20201;-74
2022/01/14 03:06:23;;;;;;;32.17;26.67;;;-0.70;99.90;;;;;;5020543;28;20252;-74
2022/01/14 03:08:51;;;;;;;36.50;28.75;;;-0.70;99.90;;;;;;5022285;28;20277;-74
2022/01/14 03:11:24;;;;;;;34.03;27.70;;;-0.70;99.90;;;;;;5020117;28;20228;-73
2022/01/14 03:13:51;;;;;;;34.55;26.60;;;-0.70;99.90;;;;;;5017725;28;20245;-74
2022/01/14 03:16:19;;;;;;;33.75;28.27;;;-0.70;99.90;;;;;;5027693;28;20196;-74
2022/01/14 03:18:47;;;;;;;33.13;26.75;;;-0.70;99.90;;;;;;5027964;28;20281;-74
2022/01/14 03:21:17;;;;;;;36.63;28.83;;;-0.70;99.90;;;;;;5033605;28;20734;-74
2022/01/14 03:23:47;;;;;;;33.30;27.33;;;-0.60;99.90;;;;;;5021595;28;20194;-73
2022/01/14 03:26:17;;;;;;;40.70;29.30;;;-0.60;99.90;;;;;;5028011;28;20186;-73
2022/01/14 03:28:45;;;;;;;37.20;29.58;;;-0.60;99.90;;;;;;5023802;28;20320;-73
2022/01/14 03:31:12;;;;;;;35.75;29.38;;;-0.60;99.90;;;;;;5030143;28;20224;-74
2022/01/14 03:33:40;;;;;;;37.38;31.75;;;-0.60;99.90;;;;;;5029173;28;20201;-74
2022/01/14 03:36:07;;;;;;;39.70;30.42;;;-0.60;99.90;;;;;;5014719;28;20557;-73
2022/01/14 03:38:35;;;;;;;40.13;30.70;;;-0.60;99.90;;;;;;5024116;28;20670;-73
2022/01/14 03:41:02;;;;;;;40.80;31.90;;;-0.60;99.90;;;;;;5026143;28;20221;-73
2022/01/14 03:43:33;;;;;;;41.15;32.83;;;-0.60;99.90;;;;;;5031251;28;20688;-75
2022/01/14 03:46:00;;;;;;;36.10;30.75;;;-0.60;99.90;;;;;;5029577;28;20189;-73
2022/01/14 03:48:27;;;;;;;39.97;31.05;;;-0.60;99.90;;;;;;5026508;28;20308;-73
2022/01/14 03:50:54;;;;;;;45.85;35.28;;;-0.60;99.90;;;;;;5021332;28;20293;-73
2022/01/14 03:53:22;;;;;;;38.50;33.72;;;-0.60;99.90;;;;;;5028426;28;20194;-73
2022/01/14 03:55:49;;;;;;;40.40;32.25;;;-0.60;99.90;;;;;;5031191;28;20248;-72
2022/01/14 03:58:16;;;;;;;37.15;30.23;;;-0.60;99.90;;;;;;5026305;28;20198;-73
2022/01/14 04:00:44;;;;;;;39.55;30.63;;;-0.60;99.90;;;;;;5018095;28;20636;-73
2022/01/14 04:03:11;;;;;;;41.90;30.90;;;-0.60;99.90;;;;;;5030975;28;20293;-73
2022/01/14 04:05:38;;;;;;;40.45;31.20;;;-0.60;99.90;;;;;;5031724;28;20208;-73
2022/01/14 04:08:06;;;;;;;39.75;30.55;;;-0.60;99.90;;;;;;5026808;28;20353;-73
2022/01/14 04:10:33;;;;;;;35.95;29.75;;;-0.60;99.90;;;;;;5029512;28;20217;-73
2022/01/14 04:13:03;;;;;;;37.13;29.40;;;-0.60;99.90;;;;;;5021668;28;20284;-74
2022/01/14 04:15:37;;;;;;;33.92;29.05;;;-0.70;99.90;;;;;;5026970;28;20198;-73
2022/01/14 04:18:07;;;;;;;34.88;29.50;;;-0.50;99.90;;;;;;5017614;28;20233;-74
2022/01/14 04:20:35;;;;;;;36.88;29.88;;;-0.60;99.90;;;;;;5030482;28;20213;-75
2022/01/14 04:23:04;;;;;;;33.70;28.45;;;-0.60;99.90;;;;;;5024287;28;20280;-73
2022/01/14 04:25:32;;;;;;;34.35;28.27;;;-0.60;99.90;;;;;;5023954;28;20280;-73
2022/01/14 04:27:59;;;;;;;34.15;29.35;;;-0.60;99.90;;;;;;5024938;28;20226;-74
2022/01/14 04:30:26;;;;;;;35.92;28.85;;;-0.60;99.90;;;;;;5029762;28;20236;-73
2022/01/14 04:32:53;;;;;;;34.58;26.58;;;-0.60;99.90;;;;;;5029654;28;20287;-73
2022/01/14 04:35:21;;;;;;;32.13;27.80;;;-0.60;99.90;;;;;;5020833;28;20247;-74
2022/01/14 04:37:48;;;;;;;33.85;27.83;;;-0.60;99.90;;;;;;5023865;28;20248;-74
2022/01/14 04:40:15;;;;;;;32.17;27.13;;;-0.60;99.90;;;;;;5026084;28;20713;-73
2022/01/14 04:42:43;;;;;;;39.83;27.70;;;-0.60;99.90;;;;;;5026669;28;20226;-73
2022/01/14 04:45:14;;;;;;;33.28;27.75;;;-0.60;99.90;;;;;;5019156;28;20237;-73
2022/01/14 04:47:47;;;;;;;36.85;29.35;;;-0.50;99.90;;;;;;5022765;28;20677;-74
2022/01/14 04:50:16;;;;;;;34.45;27.65;;;-0.50;99.90;;;;;;5018151;28;20296;-73
2022/01/14 04:52:46;;;;;;;35.15;28.45;;;-0.60;99.90;;;;;;5029468;28;20198;-73
2022/01/14 04:55:16;;;;;;;32.75;28.08;;;-0.60;99.90;;;;;;5031692;28;20200;-73
2022/01/14 04:57:44;;;;;;;31.10;26.42;;;-0.60;99.90;;;;;;5029848;28;20560;-74
2022/01/14 05:00:15;;;;;;;32.50;27.08;;;-0.60;99.90;;;;;;5021695;28;20296;-73
2022/01/14 05:02:42;;;;;;;30.35;27.05;;;-0.60;99.90;;;;;;5028944;28;20232;-75
2022/01/14 05:05:10;;;;;;;33.88;28.00;;;-0.60;99.90;;;;;;5023693;28;20278;-74
2022/01/14 05:07:38;;;;;;;33.88;27.42;;;-0.70;99.90;;;;;;5029912;28;20222;-74
2022/01/14 05:10:19;;;;;;;34.90;28.25;;;-0.60;99.90;;;;;;5026992;28;20221;-74
2022/01/14 05:12:46;;;;;;;29.95;25.65;;;-0.70;99.90;;;;;;5025053;28;20257;-78
2022/01/14 05:15:15;;;;;;;32.70;26.95;;;-0.60;99.90;;;;;;5022162;28;20304;-74
2022/01/14 05:17:42;;;;;;;34.90;27.13;;;-0.60;99.90;;;;;;5029393;28;20200;-74
2022/01/14 05:20:10;;;;;;;32.70;26.58;;;-0.60;99.90;;;;;;5015916;28;20348;-74
2022/01/14 05:22:37;;;;;;;32.10;26.90;;;-0.60;99.90;;;;;;5021510;28;20212;-74
2022/01/14 05:25:04;;;;;;;31.83;27.20;;;-0.60;99.90;;;;;;5026340;28;20197;-74
2022/01/14 05:27:33;;;;;;;31.23;26.85;;;-0.60;99.90;;;;;;5027610;28;20222;-74
2022/01/14 05:30:00;;;;;;;33.85;26.63;;;-0.60;99.90;;;;;;5017922;28;20688;-74
2022/01/14 05:32:28;;;;;;;31.63;26.98;;;-0.60;99.90;;;;;;5026511;28;20207;-74
2022/01/14 05:34:56;;;;;;;34.42;26.75;;;-0.60;99.90;;;;;;5023311;28;20241;-74
2022/01/14 05:37:23;;;;;;;33.65;27.20;;;-0.60;99.90;;;;;;5021808;28;20211;-74
2022/01/14 05:39:50;;;;;;;31.25;26.58;;;-0.60;99.90;;;;;;5029871;28;20232;-74
2022/01/14 05:42:18;;;;;;;33.25;26.65;;;-0.60;99.90;;;;;;5017765;28;20657;-74
2022/01/14 05:44:47;;;;;;;32.15;25.77;;;-0.60;99.90;;;;;;5026176;28;20193;-74
2022/01/14 05:47:14;;;;;;;30.10;26.50;;;-0.60;99.90;;;;;;5027542;28;20198;-74
2022/01/14 05:49:41;;;;;;;30.65;25.88;;;-0.60;99.90;;;;;;5022236;28;20223;-74
2022/01/14 05:52:08;;;;;;;30.10;25.58;;;-0.60;99.90;;;;;;5015245;28;20198;-74
2022/01/14 05:54:35;;;;;;;29.95;25.55;;;-0.60;99.90;;;;;;5029304;28;20198;-74
2022/01/14 05:57:02;;;;;;;30.80;26.77;;;-0.60;99.90;;;;;;5022929;28;20205;-74
2022/01/14 05:59:29;;;;;;;31.35;25.83;;;-0.60;99.90;;;;;;5024368;28;20302;-73
2022/01/14 06:01:57;;;;;;;27.98;24.08;;;-0.70;99.90;;;;;;5024228;28;20197;-74
2022/01/14 06:04:24;;;;;;;29.88;25.33;;;-0.70;99.90;;;;;;5026838;28;20217;-73
2022/01/14 06:06:51;;;;;;;30.92;25.90;;;-0.70;99.90;;;;;;5027114;28;20640;-73
2022/01/14 06:09:18;;;;;;;28.70;23.85;;;-0.70;99.90;;;;;;5026456;28;20315;-74
2022/01/14 06:11:45;;;;;;;28.63;23.40;;;-0.70;99.90;;;;;;5018414;28;20206;-73
2022/01/14 06:14:12;;;;;;;29.65;25.98;;;-0.60;99.90;;;;;;5026381;28;20201;-75
2022/01/14 06:16:39;;;;;;;29.85;25.73;;;-0.60;99.90;;;;;;5022048;28;20249;-74
2022/01/14 06:19:07;;;;;;;30.08;24.77;;;-0.60;99.90;;;;;;5032077;28;20696;-73
2022/01/14 06:21:34;;;;;;;33.28;26.23;;;-0.60;99.90;;;;;;5021475;28;20287;-73
2022/01/14 06:24:01;;;;;;;30.17;24.35;;;-0.60;99.90;;;;;;5016501;28;20233;-73
2022/01/14 06:26:28;;;;;;;28.30;23.92;;;-0.50;99.90;;;;;;5017576;28;20220;-73
2022/01/14 06:28:55;;;;;;;32.90;26.38;;;-0.50;99.90;;;;;;5024817;28;20228;-73
2022/01/14 06:31:22;;;;;;;31.45;25.58;;;-0.50;99.90;;;;;;5027862;28;20292;-75
2022/01/14 06:33:50;;;;;;;33.28;26.25;;;-0.50;99.90;;;;;;5025941;28;20206;-74
2022/01/14 06:36:18;;;;;;;32.53;26.35;;;-0.50;99.90;;;;;;5011581;28;20197;-76
2022/01/14 06:38:45;;;;;;;31.42;25.42;;;-0.50;99.90;;;;;;5033440;28;20291;-75
2022/01/14 06:41:12;;;;;;;29.30;25.85;;;-0.50;99.90;;;;;;5017730;28;20220;-76
2022/01/14 06:43:38;;;;;;;32.30;25.45;;;-0.50;99.90;;;;;;5030339;28;20281;-76
2022/01/14 06:46:05;;;;;;;31.63;25.75;;;-0.40;99.90;;;;;;5023969;28;20212;-74
2022/01/14 06:48:34;;;;;;;28.92;25.42;;;-0.40;99.90;;;;;;5028512;28;20366;-75
2022/01/14 06:51:01;;;;;;;29.25;24.63;;;-0.40;99.90;;;;;;5015924;28;20205;-75
2022/01/14 06:53:29;;;;;;;30.38;24.15;;;-0.30;99.90;;;;;;5027261;28;20531;-76
2022/01/14 06:55:56;;;;;;;26.88;23.75;;;-0.30;99.90;;;;;;5027547;28;20207;-74
2022/01/14 06:58:23;;;;;;;28.38;24.23;;;-0.30;99.90;;;;;;5027575;28;20236;-73
2022/01/14 07:00:50;;;;;;;26.67;23.10;;;-0.20;99.90;;;;;;5025001;28;20214;-73
2022/01/14 07:03:17;;;;;;;25.90;23.10;;;-0.10;99.90;;;;;;5024188;28;20227;-75
2022/01/14 07:05:44;;;;;;;27.20;22.00;;;-0.10;99.90;;;;;;5028022;28;21204;-74
2022/01/14 07:08:11;;;;;;;25.30;22.48;;;0.00;99.90;;;;;;5023833;28;20339;-74
2022/01/14 07:10:40;;;;;;;29.83;23.65;;;0.00;99.90;;;;;;5026962;28;20194;-77
2022/01/14 07:13:08;;;;;;;26.50;22.30;;;0.10;99.90;;;;;;5029113;28;20669;-74
2022/01/14 07:15:34;;;;;;;25.60;22.27;;;0.10;99.90;;;;;;5029703;28;20201;-74
2022/01/14 07:18:02;;;;;;;26.33;22.10;;;0.10;99.90;;;;;;5025851;28;20536;-78
2022/01/14 07:20:30;;;;;;;25.27;21.00;;;0.20;99.90;;;;;;5024134;28;20205;-78
2022/01/14 07:22:56;;;;;;;27.45;23.70;;;0.20;99.90;;;;;;5023029;28;20269;-79
2022/01/14 07:25:24;;;;;;;25.08;21.42;;;0.30;99.90;;;;;;5029122;28;20565;-77
2022/01/14 07:27:53;;;;;;;26.55;22.52;;;0.40;99.90;;;;;;5009484;28;20205;-77
2022/01/14 07:30:20;;;;;;;25.13;21.23;;;0.40;99.90;;;;;;5022521;28;20547;-77
2022/01/14 07:32:47;;;;;;;24.23;21.27;;;0.50;99.90;;;;;;5027546;28;20199;-77
2022/01/14 07:35:15;;;;;;;23.55;20.73;;;0.50;99.90;;;;;;5019913;28;20296;-78
2022/01/14 07:37:42;;;;;;;26.00;20.95;;;0.50;99.90;;;;;;5024312;28;20609;-77
2022/01/14 07:40:10;;;;;;;24.55;21.98;;;0.60;99.90;;;;;;5020558;28;20202;-78
2022/01/14 07:42:37;;;;;;;25.70;21.58;;;0.60;99.90;;;;;;5023395;28;20206;-77
2022/01/14 07:45:06;;;;;;;25.17;21.60;;;0.60;99.90;;;;;;5024707;28;20190;-78
2022/01/14 07:47:33;;;;;;;25.52;21.02;;;0.60;99.90;;;;;;5024814;28;20263;-78
2022/01/14 07:50:00;;;;;;;22.85;20.30;;;0.60;99.90;;;;;;5023543;28;20225;-77
2022/01/14 07:52:27;;;;;;;25.40;22.20;;;0.70;99.90;;;;;;5027479;28;20216;-77
2022/01/14 07:54:54;;;;;;;25.13;21.70;;;0.60;99.90;;;;;;5028965;28;20220;-77
2022/01/14 07:57:21;;;;;;;27.15;22.15;;;0.60;99.90;;;;;;5027484;28;20221;-78
2022/01/14 07:59:48;;;;;;;27.88;23.05;;;0.50;99.90;;;;;;5020215;28;20276;-77
2022/01/14 08:02:18;;;;;;;24.67;22.08;;;0.50;99.90;;;;;;5016407;28;20249;-77
2022/01/14 08:04:47;;;;;;;26.00;21.08;;;0.50;99.90;;;;;;5024929;28;20232;-77
2022/01/14 08:07:17;;;;;;;23.92;21.20;;;0.50;99.90;;;;;;5029803;28;20198;-77
2022/01/14 08:09:44;;;;;;;25.42;21.10;;;0.50;99.90;;;;;;5030592;28;20221;-77
2022/01/14 08:12:13;;;;;;;26.13;23.00;;;0.50;99.90;;;;;;5030423;28;20197;-78
2022/01/14 08:14:41;;;;;;;26.58;21.08;;;0.50;99.90;;;;;;5029472;28;20231;-77
2022/01/14 08:17:08;;;;;;;25.67;21.88;;;0.50;99.90;;;;;;5029737;28;20206;-78
2022/01/14 08:19:36;;;;;;;25.10;21.63;;;0.60;99.90;;;;;;5028388;28;20233;-78
2022/01/14 08:22:06;;;;;;;23.48;20.40;;;0.70;99.90;;;;;;5030079;28;20511;-77
2022/01/14 08:24:33;;;;;;;23.48;20.40;;;0.80;99.90;;;;;;5029672;28;20276;-78
2022/01/14 08:27:01;;;;;;;23.90;21.33;;;0.90;99.90;;;;;;5011329;28;20650;-77
2022/01/14 08:29:28;;;;;;;23.35;19.65;;;1.00;99.90;;;;;;5027629;28;20233;-77
2022/01/14 08:31:55;;;;;;;20.98;18.85;;;1.10;99.90;;;;;;5024983;28;20270;-78
2022/01/14 08:34:24;;;;;;;24.85;20.67;;;1.20;99.90;;;;;;5022080;28;20649;-78
2022/01/14 08:36:53;;;;;;;23.15;20.65;;;1.30;99.90;;;;;;5024368;28;20252;-77
2022/01/14 08:39:20;;;;;;;25.48;20.52;;;1.40;99.90;;;;;;5028130;28;20563;-77
2022/01/14 08:41:48;;;;;;;22.67;19.77;;;1.50;99.90;;;;;;5029805;28;20201;-78
2022/01/14 08:44:15;;;;;;;20.98;18.23;;;1.70;99.90;;;;;;5029176;28;20653;-78
2022/01/14 08:46:42;;;;;;;25.02;20.45;;;1.90;99.90;;;;;;5026054;28;20230;-77
2022/01/14 08:49:10;;;;;;;21.88;18.77;;;2.30;99.90;;;;;;5025803;28;20225;-77
2022/01/14 08:51:38;;;;;;;22.70;18.40;;;2.80;99.90;;;;;;5023436;28;20298;-77
2022/01/14 08:54:07;;;;;;;21.23;18.98;;;3.20;99.90;;;;;;5015169;28;20205;-78
2022/01/14 08:56:34;;;;;;;22.63;19.00;;;3.80;99.90;;;;;;5025411;28;20236;-77
2022/01/14 08:59:01;;;;;;;21.15;18.95;;;4.30;99.90;;;;;;5022258;28;20235;-77
2022/01/14 09:01:29;;;;;;;20.55;18.20;;;4.50;99.90;;;;;;5027006;28;20239;-77
2022/01/14 09:03:56;;;;;;;20.83;18.52;;;4.40;99.90;;;;;;5031903;28;20236;-77
2022/01/14 09:06:23;;;;;;;20.00;17.88;;;4.20;99.90;;;;;;5022477;28;20200;-77
2022/01/14 09:08:51;;;;;;;21.42;19.23;;;4.30;99.90;;;;;;5022749;28;20226;-73
2022/01/14 09:11:20;;;;;;;18.90;16.92;;;4.40;99.90;;;;;;5018975;28;20337;-76
2022/01/14 09:13:47;;;;;;;17.88;16.10;;;5.10;99.90;;;;;;5022320;28;20239;-78
2022/01/14 09:16:17;;;;;;;19.17;17.23;;;6.10;99.90;;;;;;5026384;28;20197;-77
2022/01/14 09:18:44;;;;;;;19.23;17.25;;;7.00;99.90;;;;;;5024857;28;20224;-78
2022/01/14 09:21:12;;;;;;;19.02;15.80;;;7.90;99.90;;;;;;5023059;28;20202;-78
2022/01/14 09:23:39;;;;;;;16.98;15.23;;;8.80;99.90;;;;;;5021801;28;20207;-77
2022/01/14 09:26:06;;;;;;;17.02;15.43;;;9.70;99.90;;;;;;5022009;28;20241;-78
2022/01/14 09:28:34;;;;;;;18.52;16.65;;;10.50;99.90;;;;;;5023074;28;20311;-80
2022/01/14 09:31:01;;;;;;;19.35;17.55;;;10.90;98.80;;;;;;5022853;28;20204;-77
2022/01/14 09:33:29;;;;;;;16.65;14.95;;;11.10;97.30;;;;;;5022462;28;20200;-77
2022/01/14 09:35:56;;;;;;;18.88;17.00;;;11.50;96.50;;;;;;5021662;28;20194;-77
2022/01/14 09:38:23;;;;;;;17.30;15.55;;;11.60;95.60;;;;;;5025281;28;20244;-76
2022/01/14 09:40:52;;;;;;;18.05;16.20;;;11.90;94.50;;;;;;5025510;28;20201;-77
2022/01/14 09:43:19;;;;;;;17.60;15.95;;;11.90;93.20;;;;;;5024953;28;20189;-77
2022/01/14 09:45:51;;;;;;;18.45;16.65;;;11.80;92.60;;;;;;5040305;28;20193;-78
2022/01/14 09:48:18;;;;;;;17.83;16.15;;;11.80;93.20;;;;;;5044887;28;20232;-78
2022/01/14 09:50:46;;;;;;;16.75;15.15;;;12.10;92.40;;;;;;5043484;28;20239;-79
2022/01/14 09:53:14;;;;;;;17.38;15.68;;;12.30;91.80;;;;;;5031814;28;20671;-79
2022/01/14 09:55:41;;;;;;;17.70;16.00;;;12.50;91.30;;;;;;5025950;28;20292;-78
2022/01/14 09:58:09;;;;;;;17.15;15.55;;;12.60;90.90;;;;;;5027241;28;20217;-78
2022/01/14 10:00:40;;;;;;;18.40;16.60;;;12.70;90.10;;;;;;5029717;28;20210;-78
2022/01/14 10:03:20;;;;;;;18.00;16.33;;;12.90;90.30;;;;;;5043039;28;20225;-78
2022/01/14 10:05:51;;;;;;;17.13;15.43;;;13.20;89.00;;;;;;5043058;28;20232;-78
2022/01/14 10:08:22;;;;;;;17.67;15.98;;;13.50;88.10;;;;;;5043410;28;20240;-78
2022/01/14 10:10:53;;;;;;;17.98;16.30;;;13.70;86.80;;;;;;5040064;28;20224;-80
2022/01/14 10:13:24;;;;;;;18.50;16.90;;;13.80;85.70;;;;;;5021122;28;20208;-79
2022/01/14 10:15:53;;;;;;;18.45;15.80;;;13.90;84.60;;;;;;5027163;28;20209;-81
2022/01/14 10:18:23;;;;;;;17.30;15.70;;;14.00;84.40;;;;;;5027553;28;20218;-79
2022/01/14 10:20:51;;;;;;;17.38;15.65;;;14.30;83.80;;;;;;5026295;28;20637;-80
2022/01/14 10:23:42;;;;;;;18.75;17.10;;;14.50;83.40;;;;;;5020021;28;20630;-80
2022/01/14 10:26:11;;;;;;;17.50;16.00;;;14.60;81.60;;;;;;5025048;28;20272;-79
2022/01/14 10:28:38;;;;;;;17.93;16.13;;;14.90;81.70;;;;;;5021079;28;20230;-79
2022/01/14 10:31:06;;;;;;;19.20;17.30;;;15.50;80.30;;;;;;5026072;28;21065;-80
2022/01/14 10:33:35;;;;;;;17.97;16.23;;;16.00;78.00;;;;;;5023574;28;20460;-80
2022/01/14 10:36:02;;;;;;;17.60;16.10;;;16.10;75.20;;;;;;5022321;28;20456;-80
2022/01/14 10:38:39;;;;;;;19.23;17.30;;;16.00;75.00;;;;;;5025633;28;20493;-79
2022/01/14 10:41:09;;;;;;;17.67;16.07;;;15.90;75.30;;;;;;5012844;28;20505;-81
2022/01/14 10:43:38;;;;;;;17.30;15.80;;;15.80;76.30;;;;;;5023079;28;21243;-79
2022/01/14 10:46:06;;;;;;;19.00;17.00;;;16.10;73.90;;;;;;5023946;28;20863;-76
2022/01/14 10:48:37;;;;;;;17.73;16.13;;;16.30;74.00;;;;;;5013294;28;20470;-78
2022/01/14 10:51:06;;;;;;;17.17;15.47;;;16.30;72.80;;;;;;5020038;28;20558;-80
2022/01/14 10:53:35;;;;;;;16.73;15.33;;;16.20;72.30;;;;;;5024692;28;20577;-79
2022/01/14 10:56:05;;;;;;;18.03;16.13;;;16.10;72.50;;;;;;5024315;28;20468;-80
2022/01/14 10:58:36;;;;;;;17.53;15.97;;;16.00;72.40;;;;;;5025101;28;20863;-79
2022/01/14 11:01:05;;;;;;;17.70;16.07;;;16.30;72.00;;;;;;5024095;28;20458;-78
2022/01/14 11:03:36;;;;;;;17.20;15.63;;;16.40;71.60;;;;;;5024606;28;20469;-79
2022/01/14 11:06:17;;;;;;;17.30;15.80;;;16.40;71.20;;;;;;5023264;28;20460;-78
2022/01/14 11:08:44;;;;;;;16.80;15.30;;;16.80;71.20;;;;;;5024027;28;20475;-79
2022/01/14 11:11:13;;;;;;;17.47;15.63;;;16.90;70.40;;;;;;5019144;28;20489;-77
2022/01/14 11:13:41;;;;;;;16.43;15.00;;;17.10;69.60;;;;;;5023323;28;20453;-84
2022/01/14 11:16:08;;;;;;;15.70;14.10;;;17.00;69.00;;;;;;5026745;28;21061;-85
2022/01/14 11:18:38;;;;;;;16.60;14.90;;;16.90;69.00;;;;;;5021774;28;20484;-79
2022/01/14 11:23:50;;;;;;;16.37;14.90;;;16.60;69.90;;;;;;5022415;28;20505;-80
2022/01/14 11:26:20;;;;;;;17.10;15.50;;;16.70;69.30;;;;;;5019768;28;20970;-80
2022/01/14 11:28:48;;;;;;;15.60;14.20;;;16.70;68.80;;;;;;5001283;28;20476;-80
2022/01/14 11:31:28;;;;;;;16.60;15.10;;;16.60;68.50;;;;;;5032282;28;20498;-79
2022/01/14 11:33:57;;;;;;;16.20;14.80;;;16.50;69.40;;;;;;5028600;28;20549;-79
2022/01/14 11:36:25;;;;;;;15.17;13.87;;;16.30;70.20;;;;;;5030228;28;20450;-80
2022/01/14 11:38:53;;;;;;;12.67;11.57;;;16.40;70.90;;;;;;5031964;28;20507;-79
2022/01/14 11:41:23;;;;;;;16.33;14.73;;;16.60;69.60;;;;;;5018814;28;20458;-80
2022/01/14 11:43:53;;;;;;;14.93;13.63;;;17.00;68.10;;;;;;5030562;28;20492;-79
2022/01/14 11:46:48;;;;;;;15.17;13.77;;;17.40;68.30;;;;;;5016696;28;21036;-80
2022/01/14 11:49:38;;;;;;;15.50;14.10;;;17.50;67.20;;;;;;5031432;28;20549;-79
2022/01/14 11:52:07;;;;;;;15.07;13.70;;;17.40;66.70;;;;;;5025291;28;20453;-80
2022/01/14 11:54:39;;;;;;;14.37;12.97;;;17.30;66.30;;;;;;5031951;28;20527;-79
2022/01/14 11:57:06;;;;;;;15.53;14.23;;;17.10;66.00;;;;;;5025538;28;20452;-79
2022/01/14 11:59:47;;;;;;;16.00;14.60;;;16.90;66.80;;;;;;5019672;28;20475;-80
2022/01/14 12:02:38;;;;;;;16.20;14.73;;;16.60;66.40;;;;;;5020642;28;20697;-79
2022/01/14 12:05:20;;;;;;;16.30;14.80;;;16.40;67.00;;;;;;5024263;28;20543;-79
2022/01/14 12:08:21;;;;;;;15.90;14.53;;;16.40;68.20;;;;;;5024527;28;20554;-79
2022/01/14 12:10:51;;;;;;;16.63;15.03;;;16.40;66.00;;;;;;5024846;28;20584;-77
2022/01/14 12:13:23;;;;;;;16.17;14.77;;;16.50;66.60;;;;;;4997287;28;20460;-77
2022/01/14 12:16:02;;;;;;;16.70;15.20;;;16.70;65.10;;;;;;5021867;28;20471;-79
2022/01/14 12:19:13;;;;;;;16.13;14.50;;;16.60;65.80;;;;;;5016621;28;20526;-79
2022/01/14 12:22:10;;;;;;;16.00;14.50;;;16.80;65.40;;;;;;5014795;28;20559;-79
2022/01/14 12:24:49;;;;;;;16.13;14.50;;;16.90;64.40;;;;;;5011524;28;20545;-79
2022/01/14 12:27:24;;;;;;;14.70;13.50;;;16.50;65.10;;;;;;5015463;28;20482;-79
2022/01/14 12:30:00;;;;;;;16.10;14.60;;;16.50;65.10;;;;;;5020989;28;20499;-79
2022/01/14 12:32:34;;;;;;;15.13;13.70;;;16.40;64.90;;;;;;5019066;28;20547;-79
2022/01/14 12:35:04;;;;;;;14.87;13.57;;;16.40;65.90;;;;;;5017962;28;20459;-79
2022/01/14 12:37:35;;;;;;;14.70;13.40;;;16.30;65.60;;;;;;5011679;28;20845;-78
2022/01/14 12:40:07;;;;;;;15.93;14.43;;;16.20;65.80;;;;;;5013068;28;20799;-79
2022/01/14 12:42:34;;;;;;;14.30;13.00;;;16.30;66.30;;;;;;5014841;28;20488;-78
2022/01/14 12:45:03;;;;;;;15.00;13.60;;;16.60;65.90;;;;;;5011183;28;20456;-79
2022/01/14 12:47:34;;;;;;;13.93;12.60;;;17.10;65.50;;;;;;5011131;28;20822;-78
2022/01/14 12:50:04;;;;;;;14.27;12.87;;;17.50;64.70;;;;;;5010124;28;20994;-79
2022/01/14 12:52:38;;;;;;;15.17;13.77;;;17.90;63.30;;;;;;5017243;28;20519;-79
2022/01/14 12:55:07;;;;;;;13.20;12.10;;;18.10;63.60;;;;;;5014275;28;20488;-78
2022/01/14 12:57:35;;;;;;;14.10;12.70;;;18.10;62.80;;;;;;5013894;28;20578;-79